Arlington, TX (76001)

6:11 PM CDT on September 01, 2015 (GMT -0500)
Rush Creek | | Change Station
CLOSE
Current Station
Personal Weather Station
Location: Arlington, TX
Elevation: 650 ft
Nearby Weather Stations

Elev 650 ft 32.63 °N, 97.14 °W | Updated 4 minutes ago

Clear
Clear
91.8 °F
Feels Like 93 °F
N
0.0
Wind Variable Wind from WSW
Gusts 0.0 mph

Today
High -- | Low -- °F
--% Chance of Precip.
Yesterday
High -- | Low -- °F
Precip. -- in
7:03 AM 7:53 PM
Waning Gibbous, 85% visible
Pressure 29.93 in
Visibility 10.0 miles
Clouds Few 7000 ft
Heat Index 93 °F
Dew Point 63 °F
Humidity 39%
Rainfall 0.00 in
Snow Depth Not available.
UV 2 out of 12
Pollen 9.10 out of 12
Air Quality Not available.
Flu Activity Not available.
METAR KGKY 012253Z 14012KT 10SM FEW070 34/17 A2996 RMK AO2 SLP134 T03390167
Pressure 29.93 in
Visibility 10.0 miles
Clouds Few 7000 ft
Heat Index 93 °F
Dew Point 63 °F
Humidity 39%
Rainfall 0.00 in
Snow Depth Not available.
UV 2 out of 12
Pollen 9.10 out of 12
Air Quality Not available.
Flu Activity Not available.
METAR KGKY 012253Z 14012KT 10SM FEW070 34/17 A2996 RMK AO2 SLP134 T03390167
Nowcast | as of 6:02 PM CDT on September 1, 2015

A few showers and perhaps an isolated thunderstorm will affect areas generally along and east of I-35 and south of I-30 early this evening. Activity is moving northwest at 20 mph and should diminish around sunset with the loss of surface heating.

×

10-Day Weather Forecast

×

Almanac

Astronomy

Sep. 01, 2015 Rise Set
Actual Time
Civil Twilight
Nautical Twilight
Astronomical Twilight
Moon
Length of Visible Light
Length of Day
Tomorrow will be .
, % of the Moon is Illuminated

Today's Extremes

State Highs State Lows

Community

WunderPhotos

Upload Photos

1,851,638 photos uploaded!

WunderBlogs® & News

Nearby

Air Quality

  Air Quality AQ Index Pollutant
Not available.

Snow Depth

Station Depth Elevation

Earthquake Activity

City Distance Mag. Time & Date
Minimum magnitude displayed is 2.5.

Coastal Water Temperatures

Place Temperature

Stations

Nearby Weather Stations

Station Location Temp. Windchill Dew Point Humidity Wind Precip. Elev Updated Type